createdAt,value
2023-02-03T00:01:23.816Z,9.33
2023-02-03T00:03:53.316Z,6.70
2023-02-03T00:06:21.460Z,9.13
2023-02-03T00:08:50.265Z,8.73
2023-02-03T00:11:18.340Z,10.50
2023-02-03T00:13:46.412Z,8.87
2023-02-03T00:16:14.570Z,10.23
2023-02-03T00:18:42.631Z,11.97
2023-02-03T00:21:14.588Z,9.60
2023-02-03T00:23:42.773Z,11.93
2023-02-03T00:26:12.205Z,5.53
2023-02-03T00:28:40.342Z,11.23
2023-02-03T00:31:15.616Z,10.87
2023-02-03T00:33:43.767Z,14.27
2023-02-03T00:36:14.165Z,8.17
2023-02-03T00:38:42.439Z,10.80
2023-02-03T00:41:10.541Z,6.83
2023-02-03T00:43:38.664Z,8.07
2023-02-03T00:46:07.015Z,8.13
2023-02-03T00:48:35.398Z,9.47
2023-02-03T00:51:03.515Z,9.93
2023-02-03T00:53:32.938Z,10.23
2023-02-03T00:56:01.067Z,10.63
2023-02-03T00:58:29.267Z,8.43
2023-02-03T01:00:57.889Z,9.10
2023-02-03T01:03:26.125Z,10.93
2023-02-03T01:05:54.245Z,11.63
2023-02-03T01:08:23.699Z,7.40
2023-02-03T01:10:53.472Z,10.47
2023-02-03T01:13:21.540Z,9.43
2023-02-03T01:15:49.692Z,9.80
2023-02-03T01:18:17.806Z,7.77
2023-02-03T01:20:45.858Z,12.43
2023-02-03T01:23:13.907Z,9.83
2023-02-03T01:25:42.276Z,7.80
2023-02-03T01:28:11.891Z,8.77
2023-02-03T01:30:40.050Z,6.47
2023-02-03T01:33:08.228Z,8.83
2023-02-03T01:35:36.577Z,8.87
2023-02-03T01:38:04.688Z,8.30
2023-02-03T01:40:32.845Z,8.03
2023-02-03T01:43:00.949Z,6.83
2023-02-03T01:45:30.507Z,6.43
2023-02-03T01:48:01.148Z,4.30
2023-02-03T01:50:33.961Z,9.53
2023-02-03T01:53:04.784Z,4.90
2023-02-03T01:55:36.275Z,8.40
2023-02-03T01:58:08.711Z,10.43
2023-02-03T02:00:38.269Z,3.83
2023-02-03T02:03:08.373Z,7.77
2023-02-03T02:05:41.283Z,5.13
2023-02-03T02:08:10.898Z,7.47
2023-02-03T02:10:39.060Z,7.23
2023-02-03T02:13:08.014Z,5.70
2023-02-03T02:15:50.556Z,8.60
2023-02-03T02:18:45.853Z,8.73
2023-02-03T02:21:49.983Z,5.50
2023-02-03T02:25:02.200Z,7.57
2023-02-03T02:27:52.263Z,5.13
2023-02-03T02:30:51.555Z,7.67
2023-02-03T02:33:31.171Z,8.53
2023-02-03T02:36:07.596Z,4.53
2023-02-03T02:38:46.418Z,7.10
2023-02-03T02:41:20.124Z,6.13
2023-02-03T02:43:52.852Z,4.20
2023-02-03T02:46:27.798Z,5.43
2023-02-03T02:49:02.865Z,5.73
2023-02-03T02:51:32.432Z,6.17
2023-02-03T02:54:04.864Z,11.77
2023-02-03T02:56:35.832Z,3.07
2023-02-03T02:59:06.060Z,4.93
2023-02-03T03:07:00.094Z,5.30
2023-02-03T03:09:36.011Z,6.33
2023-02-03T03:12:08.892Z,6.23
2023-02-03T03:14:38.723Z,6.03
2023-02-03T03:17:10.477Z,3.70
2023-02-03T03:19:43.471Z,4.20
2023-02-03T03:22:16.775Z,6.93
2023-02-03T03:24:48.959Z,10.33
2023-02-03T03:27:21.397Z,3.97
2023-02-03T03:29:53.497Z,8.53
2023-02-03T03:32:21.888Z,9.73
2023-02-03T03:34:50.507Z,9.97
2023-02-03T03:37:23.877Z,7.80
2023-02-03T03:39:55.787Z,6.50
2023-02-03T03:42:31.560Z,6.97
2023-02-03T03:45:04.881Z,3.43
2023-02-03T03:47:39.769Z,8.00
2023-02-03T03:50:11.855Z,7.93
2023-02-03T03:52:42.911Z,4.87
2023-02-03T03:55:12.788Z,6.47
2023-02-03T03:57:44.795Z,3.43
2023-02-03T04:00:16.158Z,6.80
2023-02-03T04:02:47.603Z,9.07
2023-02-03T04:05:16.444Z,6.57
2023-02-03T04:07:47.698Z,9.60
2023-02-03T04:10:23.361Z,5.53
2023-02-03T04:12:51.465Z,5.93
2023-02-03T04:15:19.531Z,4.77
2023-02-03T04:17:47.633Z,3.53
2023-02-03T04:20:16.642Z,5.93
2023-02-03T04:22:46.058Z,8.17
2023-02-03T04:25:14.162Z,4.37
2023-02-03T04:27:42.320Z,5.67
2023-02-03T04:30:11.699Z,5.30
2023-02-03T04:32:39.802Z,6.07
2023-02-03T04:35:09.351Z,5.90
2023-02-03T04:37:37.660Z,5.67
2023-02-03T04:40:08.571Z,3.90
2023-02-03T04:42:38.112Z,3.70
2023-02-03T04:45:07.016Z,3.67
2023-02-03T04:47:35.337Z,6.93
2023-02-03T04:50:03.552Z,3.63
2023-02-03T04:52:31.692Z,5.87
2023-02-03T04:54:59.799Z,9.50
2023-02-03T04:57:29.181Z,5.33
2023-02-03T04:59:57.252Z,6.33
2023-02-03T05:02:25.376Z,6.63
2023-02-03T05:04:53.703Z,5.77
2023-02-03T05:07:21.901Z,5.20
2023-02-03T05:09:49.990Z,4.23
2023-02-03T05:12:18.058Z,4.20
2023-02-03T05:14:47.497Z,4.67
2023-02-03T05:17:15.604Z,7.50
2023-02-03T05:19:43.657Z,11.87
2023-02-03T05:22:11.709Z,5.23
2023-02-03T05:24:39.788Z,6.47
2023-02-03T05:27:07.918Z,5.07
2023-02-03T05:29:36.000Z,5.53
2023-02-03T05:32:05.708Z,8.00
2023-02-03T05:34:33.821Z,4.73
2023-02-03T05:37:02.017Z,7.13
2023-02-03T05:39:30.106Z,4.07
2023-02-03T05:41:58.453Z,6.13
2023-02-03T05:44:28.384Z,4.97
2023-02-03T05:46:58.070Z,4.50
2023-02-03T05:49:27.647Z,4.07
2023-02-03T05:51:56.968Z,9.57
2023-02-03T05:54:25.309Z,10.33
2023-02-03T05:56:53.433Z,8.70
2023-02-03T05:59:21.540Z,9.13
2023-02-03T06:01:49.748Z,12.63
2023-02-03T06:04:17.932Z,5.67
2023-02-03T06:06:48.202Z,7.20
2023-02-03T06:09:16.386Z,4.70
2023-02-03T06:11:44.493Z,6.80
2023-02-03T06:14:12.604Z,4.73
2023-02-03T06:16:40.720Z,11.53
2023-02-03T06:19:09.016Z,4.20
2023-02-03T06:21:37.076Z,8.10
2023-02-03T06:24:06.984Z,4.37
2023-02-03T06:26:35.089Z,5.20
2023-02-03T06:29:03.267Z,8.53
2023-02-03T06:31:31.594Z,7.40
2023-02-03T06:34:02.546Z,9.40
2023-02-03T06:36:30.709Z,4.63
2023-02-03T06:38:59.313Z,8.70
2023-02-03T06:41:30.753Z,5.67
2023-02-03T06:43:58.940Z,6.60
2023-02-03T06:46:29.859Z,3.83
2023-02-03T06:48:58.287Z,6.60
2023-02-03T06:51:26.442Z,10.90
2023-02-03T06:53:54.572Z,4.30
2023-02-03T06:56:22.659Z,7.23
2023-02-03T06:58:52.157Z,6.20
2023-02-03T07:10:17.724Z,7.67
2023-02-03T07:12:46.356Z,7.53
2023-02-03T07:15:16.986Z,6.83
2023-02-03T07:17:47.018Z,4.47
2023-02-03T07:20:15.170Z,8.77
2023-02-03T07:22:44.563Z,4.73
2023-02-03T07:25:12.631Z,7.17
2023-02-03T07:27:40.820Z,5.80
2023-02-03T07:30:11.793Z,9.97
2023-02-03T07:32:41.246Z,7.17
2023-02-03T07:35:09.689Z,9.30
2023-02-03T07:37:37.723Z,4.90
2023-02-03T07:40:06.531Z,7.83
2023-02-03T07:42:34.589Z,8.20
2023-02-03T07:45:02.698Z,10.93
2023-02-03T07:47:31.147Z,11.47
2023-02-03T07:50:00.557Z,10.87
2023-02-03T07:52:28.672Z,11.63
2023-02-03T07:54:56.838Z,7.90
2023-02-03T07:57:24.936Z,7.73
2023-02-03T07:59:52.979Z,5.70
2023-02-03T08:02:21.149Z,6.10
2023-02-03T08:04:49.372Z,4.43
2023-02-03T08:07:18.854Z,19.63
2023-02-03T08:09:46.885Z,6.83
2023-02-03T08:12:14.969Z,8.77
2023-02-03T08:14:43.047Z,5.87
2023-02-03T08:17:11.201Z,6.20
2023-02-03T08:19:39.321Z,8.07
2023-02-03T08:22:07.384Z,8.30
2023-02-03T08:24:36.822Z,6.13
2023-02-03T08:27:04.982Z,9.43
2023-02-03T08:29:32.992Z,7.03
2023-02-03T08:32:01.428Z,6.40
2023-02-03T08:34:29.623Z,7.17
2023-02-03T08:36:57.715Z,9.70
2023-02-03T08:39:25.834Z,10.27
2023-02-03T08:41:55.528Z,7.07
2023-02-03T08:45:11.166Z,10.70
2023-02-03T08:47:39.368Z,5.53
2023-02-03T08:50:09.645Z,5.90
2023-02-03T08:52:37.820Z,10.73
2023-02-03T08:55:06.458Z,5.50
2023-02-03T09:13:00.030Z,8.83
2023-02-03T09:15:28.164Z,6.67
2023-02-03T09:17:57.927Z,11.43
2023-02-03T09:20:26.637Z,9.87
2023-02-03T09:22:55.526Z,5.53
2023-02-03T09:25:23.614Z,12.03
2023-02-03T09:27:51.755Z,11.07
2023-02-03T09:30:21.381Z,9.27
2023-02-03T09:32:54.206Z,10.03
2023-02-03T09:35:22.379Z,6.00
2023-02-03T09:37:50.466Z,12.17
2023-02-03T09:40:23.252Z,7.97
2023-02-03T09:43:19.268Z,7.33
2023-02-03T09:45:48.852Z,8.73
2023-02-03T09:48:21.975Z,7.70
2023-02-03T09:50:51.688Z,8.40
2023-02-03T09:53:28.882Z,11.47
2023-02-03T09:55:58.767Z,12.33
2023-02-03T09:58:33.643Z,10.27
2023-02-03T10:01:06.920Z,7.27
2023-02-03T10:03:42.944Z,10.67
2023-02-03T10:06:20.461Z,9.33
2023-02-03T10:09:04.747Z,10.77
2023-02-03T10:11:49.810Z,6.97
2023-02-03T10:14:36.976Z,6.43
2023-02-03T10:17:26.159Z,11.87
2023-02-03T10:19:59.199Z,7.63
2023-02-03T10:22:30.720Z,4.57
2023-02-03T10:25:04.528Z,8.23
2023-02-03T10:27:34.598Z,8.27
2023-02-03T10:30:06.401Z,6.57
2023-02-03T10:32:37.828Z,7.67
2023-02-03T10:35:12.312Z,7.63
2023-02-03T10:37:45.414Z,12.97
2023-02-03T10:40:15.233Z,8.10
2023-02-03T10:43:02.305Z,9.03
2023-02-03T10:45:31.914Z,8.57
2023-02-03T10:48:01.983Z,11.70
2023-02-03T10:50:32.347Z,7.67
2023-02-03T10:53:22.743Z,11.03
2023-02-03T10:55:53.346Z,11.00
2023-02-03T10:58:28.495Z,9.67
2023-02-03T11:00:58.444Z,8.63
2023-02-03T11:03:30.171Z,10.33
2023-02-03T11:06:16.662Z,13.27
2023-02-03T11:12:25.754Z,7.97
2023-02-03T11:14:55.316Z,5.17
2023-02-03T11:17:27.060Z,5.47
2023-02-03T11:20:01.041Z,6.57
2023-02-03T11:22:31.791Z,6.20
2023-02-03T11:25:01.198Z,7.10
2023-02-03T11:27:31.499Z,5.93
2023-02-03T11:30:11.909Z,4.00
2023-02-03T11:32:42.619Z,4.80
2023-02-03T11:35:19.914Z,3.93
2023-02-03T11:37:50.114Z,6.80
2023-02-03T11:40:27.569Z,4.63
2023-02-03T11:55:05.820Z,7.93
2023-02-03T11:57:45.882Z,3.27
2023-02-03T12:00:31.104Z,3.77
2023-02-03T12:03:21.710Z,6.03
2023-02-03T12:06:04.787Z,5.33
2023-02-03T12:08:46.978Z,4.30
2023-02-03T12:11:28.865Z,3.93
2023-02-03T12:14:17.304Z,2.60
2023-02-03T12:17:06.697Z,4.87
2023-02-03T12:19:48.279Z,4.73
2023-02-03T12:22:23.537Z,2.93
2023-02-03T12:25:02.500Z,4.40
2023-02-03T12:27:45.342Z,2.10
2023-02-03T12:30:19.418Z,9.20
2023-02-03T12:32:52.304Z,6.40
2023-02-03T12:35:24.335Z,4.60
2023-02-03T12:37:58.007Z,12.00
2023-02-03T12:40:36.709Z,5.33
2023-02-03T12:43:21.905Z,6.33
2023-02-03T12:45:56.740Z,4.77
2023-02-03T12:48:29.725Z,5.60
2023-02-03T12:51:03.136Z,6.57
2023-02-03T12:53:35.127Z,7.27
2023-02-03T12:56:07.797Z,5.50
2023-02-03T12:58:40.851Z,8.00
2023-02-03T13:01:18.033Z,6.97
2023-02-03T13:03:52.842Z,4.27
2023-02-03T13:06:25.960Z,6.60
2023-02-03T13:08:59.340Z,5.83
2023-02-03T13:11:33.628Z,5.53
2023-02-03T13:14:11.032Z,3.47
2023-02-03T13:16:45.034Z,5.33
2023-02-03T13:19:18.662Z,5.57
2023-02-03T13:21:49.145Z,5.73
2023-02-03T13:24:17.952Z,4.57
2023-02-03T13:27:15.440Z,6.30
2023-02-03T13:30:08.046Z,5.80
2023-02-03T13:32:58.588Z,6.47
2023-02-03T13:35:39.468Z,8.17
2023-02-03T13:38:41.586Z,10.97
2023-02-03T13:41:19.487Z,10.60
2023-02-03T13:43:50.383Z,8.10
2023-02-03T13:46:24.229Z,5.67
2023-02-03T13:48:55.472Z,8.03
2023-02-03T13:51:29.216Z,6.30
2023-02-03T13:54:02.961Z,10.43
2023-02-03T13:56:32.218Z,6.60
2023-02-03T13:59:05.740Z,12.77
2023-02-03T14:01:37.097Z,8.73
2023-02-03T14:04:07.860Z,13.77
2023-02-03T14:07:04.063Z,15.63
2023-02-03T14:09:42.806Z,10.07
2023-02-03T14:12:41.614Z,10.63
2023-02-03T14:15:30.782Z,7.67
2023-02-03T14:18:27.352Z,10.70
2023-02-03T14:21:15.654Z,10.60
2023-02-03T14:24:01.805Z,10.63
2023-02-03T14:26:48.411Z,9.63
2023-02-03T14:29:27.555Z,13.70
2023-02-03T14:32:01.320Z,12.17
2023-02-03T14:34:38.917Z,12.07
2023-02-03T14:37:18.187Z,10.73
2023-02-03T14:40:17.475Z,15.43
2023-02-03T14:43:12.442Z,10.27
2023-02-03T14:46:29.569Z,11.83
2023-02-03T14:49:14.624Z,10.87
2023-02-03T14:52:02.215Z,10.03
2023-02-03T14:54:47.531Z,7.43
2023-02-03T14:57:30.445Z,13.03
2023-02-03T15:00:02.236Z,11.00
2023-02-03T15:02:32.218Z,14.17
2023-02-03T15:05:38.078Z,9.40
2023-02-03T15:08:06.375Z,9.60
2023-02-03T15:10:46.919Z,12.90
2023-02-03T15:13:25.960Z,13.23
2023-02-03T15:15:56.482Z,10.73
2023-02-03T15:18:30.688Z,15.47
2023-02-03T15:20:59.311Z,8.77
2023-02-03T15:23:29.531Z,17.23
2023-02-03T15:26:01.875Z,14.17
2023-02-03T15:28:31.510Z,9.47
2023-02-03T15:31:05.325Z,12.97
2023-02-03T15:33:35.907Z,9.47
2023-02-03T15:36:07.397Z,13.90
2023-02-03T15:38:39.579Z,14.33
2023-02-03T15:41:19.090Z,15.63
2023-02-03T15:43:49.547Z,15.67
2023-02-03T15:46:21.468Z,14.17
2023-02-03T15:48:53.887Z,16.47
2023-02-03T15:51:26.059Z,7.63
2023-02-03T15:53:58.808Z,13.17
2023-02-03T15:56:37.815Z,15.20
2023-02-03T15:59:06.798Z,11.80
2023-02-03T16:01:35.074Z,15.03
2023-02-03T16:04:03.370Z,15.53
2023-02-03T16:06:36.027Z,15.07
2023-02-03T16:09:07.007Z,12.43
2023-02-03T16:11:38.651Z,16.33
2023-02-03T16:14:08.374Z,10.20
2023-02-03T16:16:40.910Z,13.90
2023-02-03T16:19:15.163Z,12.17
2023-02-03T16:21:54.775Z,17.27
2023-02-03T16:24:38.205Z,13.10
2023-02-03T16:27:34.874Z,10.83
2023-02-03T16:30:50.265Z,17.23
2023-02-03T16:33:36.339Z,11.93
2023-02-03T16:36:29.830Z,13.47
2023-02-03T16:39:17.534Z,13.40
2023-02-03T16:42:03.168Z,13.50
2023-02-03T16:44:49.947Z,15.33
2023-02-03T16:47:43.058Z,11.90
2023-02-03T16:50:38.218Z,13.30
2023-02-03T16:53:07.355Z,14.10
2023-02-03T16:55:35.515Z,11.23
2023-02-03T16:58:03.572Z,10.67
2023-02-03T17:00:33.089Z,17.03
2023-02-03T17:03:04.899Z,11.90
2023-02-03T17:05:33.174Z,11.83
2023-02-03T17:08:01.299Z,15.43
2023-02-03T17:10:29.438Z,19.90
2023-02-03T17:12:57.593Z,14.93
2023-02-03T17:15:25.953Z,12.80
2023-02-03T17:17:55.662Z,13.93
2023-02-03T17:20:23.762Z,18.17
2023-02-03T17:22:54.441Z,15.63
2023-02-03T17:25:23.405Z,9.80
2023-02-03T17:27:51.547Z,16.47
2023-02-03T17:30:19.937Z,14.77
2023-02-03T17:32:48.050Z,14.97
2023-02-03T17:35:17.717Z,13.83
2023-02-03T17:37:45.821Z,17.00
2023-02-03T17:54:06.642Z,14.17
2023-02-03T17:56:35.884Z,12.97
2023-02-03T17:59:05.887Z,13.47
2023-02-03T18:01:34.105Z,9.27
2023-02-03T18:04:04.682Z,9.97
2023-02-03T18:06:35.659Z,15.37
2023-02-03T18:09:05.075Z,12.37
2023-02-03T18:11:35.291Z,16.60
2023-02-03T18:26:08.722Z,14.60
2023-02-03T18:28:38.056Z,13.40
2023-02-03T18:31:07.690Z,16.77
2023-02-03T18:33:37.356Z,16.50
2023-02-03T18:36:06.209Z,8.53
2023-02-03T18:38:36.436Z,11.13
2023-02-03T18:41:07.979Z,14.07
2023-02-03T18:43:36.532Z,13.60
2023-02-03T18:46:07.637Z,22.60
2023-02-03T18:48:36.134Z,16.27
2023-02-03T18:51:08.280Z,14.07
2023-02-03T18:53:37.072Z,14.50
2023-02-03T18:56:08.933Z,12.03
2023-02-03T18:58:38.921Z,14.83
2023-02-03T19:01:07.146Z,11.87
2023-02-03T19:03:36.170Z,12.37
2023-02-03T19:06:10.479Z,14.00
2023-02-03T19:08:38.750Z,11.90
2023-02-03T19:11:08.398Z,13.97
2023-02-03T19:13:36.703Z,19.43
2023-02-03T19:16:05.148Z,14.10
2023-02-03T19:18:33.244Z,11.97
2023-02-03T19:21:01.355Z,21.20
2023-02-03T19:23:29.450Z,13.83
2023-02-03T19:25:57.631Z,20.30
2023-02-03T19:28:30.945Z,11.53
2023-02-03T19:31:08.085Z,15.93
2023-02-03T19:33:36.874Z,13.40
2023-02-03T19:36:05.672Z,14.27
2023-02-03T19:38:33.764Z,15.87
2023-02-03T19:41:02.556Z,17.90
2023-02-03T19:43:32.658Z,16.63
2023-02-03T19:46:02.290Z,21.93
2023-02-03T19:48:30.759Z,16.63
2023-02-03T19:50:58.957Z,12.97
2023-02-03T19:53:27.162Z,16.57
2023-02-03T19:55:55.285Z,17.43
2023-02-03T19:58:24.559Z,14.23
2023-02-03T20:00:54.625Z,14.17
2023-02-03T20:03:22.865Z,13.17
2023-02-03T20:05:52.953Z,14.83
2023-02-03T20:08:21.064Z,19.03
2023-02-03T20:10:49.488Z,13.07
2023-02-03T20:13:17.635Z,21.80
2023-02-03T20:15:47.612Z,17.47
2023-02-03T20:18:17.159Z,14.27
2023-02-03T20:20:45.264Z,19.47
2023-02-03T20:23:13.341Z,21.53
2023-02-03T20:25:42.697Z,16.53
2023-02-03T20:28:11.070Z,14.03
2023-02-03T20:30:40.059Z,13.10
2023-02-03T20:33:08.206Z,13.77
2023-02-03T20:35:38.438Z,22.33
2023-02-03T20:38:06.968Z,19.33
2023-02-03T20:40:35.500Z,18.90
2023-02-03T20:43:13.439Z,16.33
2023-02-03T20:45:41.645Z,14.70
2023-02-03T20:48:12.011Z,16.57
2023-02-03T20:50:46.605Z,16.70
2023-02-03T20:53:16.128Z,17.73
2023-02-03T20:55:44.292Z,14.93
2023-02-03T20:58:18.909Z,22.10
2023-02-03T21:00:48.421Z,12.47
2023-02-03T21:03:35.533Z,18.47
2023-02-03T21:06:12.977Z,15.80
2023-02-03T21:08:41.049Z,17.97
2023-02-03T21:11:12.787Z,10.47
2023-02-03T21:13:41.443Z,15.43
2023-02-03T21:16:17.456Z,19.20
2023-02-03T21:18:50.381Z,18.20
2023-02-03T21:21:24.887Z,14.00
2023-02-03T21:23:54.091Z,16.03
2023-02-03T21:26:23.985Z,20.20
2023-02-03T21:28:54.080Z,18.30
2023-02-03T21:31:25.681Z,13.97
2023-02-03T21:33:55.842Z,12.57
2023-02-03T21:36:27.706Z,17.90
2023-02-03T21:38:57.357Z,16.03
2023-02-03T21:41:26.459Z,15.33
2023-02-03T21:43:56.993Z,16.90
2023-02-03T21:46:26.832Z,18.90
2023-02-03T21:48:56.584Z,11.50
2023-02-03T21:51:27.980Z,12.77
2023-02-03T21:53:58.047Z,16.80
2023-02-03T21:56:27.894Z,17.43
2023-02-03T21:58:59.017Z,20.40
2023-02-03T22:01:28.503Z,18.30
2023-02-03T22:03:58.989Z,13.37
2023-02-03T22:06:30.443Z,14.87
2023-02-03T22:08:59.877Z,14.20
2023-02-03T22:11:30.465Z,15.27
2023-02-03T22:13:58.959Z,17.40
2023-02-03T22:16:29.053Z,13.70
2023-02-03T22:18:57.479Z,15.80
2023-02-03T22:21:26.071Z,20.60
2023-02-03T22:23:55.708Z,17.27
2023-02-03T22:26:23.806Z,18.93
2023-02-03T22:28:51.942Z,18.90
2023-02-03T22:31:20.898Z,19.97
2023-02-03T22:33:49.241Z,14.40
2023-02-03T22:36:17.449Z,15.63
2023-02-03T22:38:45.696Z,9.27
2023-02-03T22:41:15.307Z,11.43
2023-02-03T22:43:43.478Z,22.07
2023-02-03T22:46:12.196Z,14.33
2023-02-03T22:48:40.319Z,8.80
2023-02-03T22:51:08.437Z,14.07
2023-02-03T22:53:36.602Z,12.30
2023-02-03T22:56:04.846Z,16.30
2023-02-03T22:58:34.321Z,12.73
2023-02-03T23:01:02.408Z,18.87
2023-02-03T23:03:32.670Z,19.27
2023-02-03T23:06:00.964Z,14.87
2023-02-03T23:08:29.056Z,18.90
2023-02-03T23:10:57.137Z,13.37
2023-02-03T23:13:25.295Z,12.50
2023-02-03T23:15:54.872Z,10.77
2023-02-03T23:18:22.971Z,14.00
2023-02-03T23:20:51.127Z,13.90
2023-02-03T23:23:19.171Z,14.60
2023-02-03T23:25:47.250Z,17.27
2023-02-03T23:28:15.474Z,11.33
2023-02-03T23:30:43.724Z,9.67
2023-02-03T23:33:13.237Z,14.13
2023-02-03T23:35:46.016Z,9.37
2023-02-03T23:38:14.613Z,10.67
2023-02-03T23:40:42.753Z,20.30
2023-02-03T23:43:10.881Z,7.00
2023-02-03T23:45:38.982Z,10.80
2023-02-03T23:48:07.613Z,9.63
2023-02-03T23:50:37.267Z,11.30
2023-02-03T23:53:05.421Z,10.43
2023-02-03T23:55:33.519Z,10.73
2023-02-03T23:58:01.640Z,17.60
